sensor_id;sensor_type;location;lat;lon;timestamp;P1;durP1;ratioP1;P2;durP2;ratioP2
23390;SDS011;11868;45.606;5.302;2023-02-28T00:01:25;10.75;;;7.03;;
23390;SDS011;11868;45.606;5.302;2023-02-28T00:03:51;11.48;;;7.25;;
23390;SDS011;11868;45.606;5.302;2023-02-28T00:06:17;11.48;;;8.00;;
23390;SDS011;11868;45.606;5.302;2023-02-28T00:08:43;10.32;;;7.15;;
23390;SDS011;11868;45.606;5.302;2023-02-28T00:11:10;11.60;;;7.75;;
23390;SDS011;11868;45.606;5.302;2023-02-28T00:13:37;10.88;;;7.43;;
23390;SDS011;11868;45.606;5.302;2023-02-28T00:16:12;9.90;;;7.13;;
23390;SDS011;11868;45.606;5.302;2023-02-28T00:18:38;11.15;;;7.22;;
23390;SDS011;11868;45.606;5.302;2023-02-28T00:21:04;11.52;;;7.45;;
23390;SDS011;11868;45.606;5.302;2023-02-28T00:23:30;11.70;;;7.65;;
23390;SDS011;11868;45.606;5.302;2023-02-28T00:25:56;14.27;;;8.48;;
23390;SDS011;11868;45.606;5.302;2023-02-28T00:28:21;13.27;;;7.82;;
23390;SDS011;11868;45.606;5.302;2023-02-28T00:30:47;14.48;;;8.70;;
23390;SDS011;11868;45.606;5.302;2023-02-28T00:33:12;15.60;;;7.95;;
23390;SDS011;11868;45.606;5.302;2023-02-28T00:35:38;14.23;;;9.27;;
23390;SDS011;11868;45.606;5.302;2023-02-28T00:38:03;21.52;;;12.07;;
23390;SDS011;11868;45.606;5.302;2023-02-28T00:40:28;19.25;;;12.45;;
23390;SDS011;11868;45.606;5.302;2023-02-28T00:42:54;18.05;;;11.52;;
23390;SDS011;11868;45.606;5.302;2023-02-28T00:45:19;19.33;;;10.73;;
23390;SDS011;11868;45.606;5.302;2023-02-28T00:47:45;24.05;;;11.57;;
23390;SDS011;11868;45.606;5.302;2023-02-28T00:50:11;20.38;;;10.88;;
23390;SDS011;11868;45.606;5.302;2023-02-28T00:52:37;21.60;;;12.45;;
23390;SDS011;11868;45.606;5.302;2023-02-28T00:55:02;20.35;;;11.35;;
23390;SDS011;11868;45.606;5.302;2023-02-28T00:57:29;18.75;;;10.07;;
23390;SDS011;11868;45.606;5.302;2023-02-28T00:59:55;13.48;;;8.73;;
23390;SDS011;11868;45.606;5.302;2023-02-28T01:02:21;15.35;;;9.55;;
23390;SDS011;11868;45.606;5.302;2023-02-28T01:04:47;18.73;;;10.40;;
23390;SDS011;11868;45.606;5.302;2023-02-28T01:07:12;19.30;;;10.23;;
23390;SDS011;11868;45.606;5.302;2023-02-28T01:09:38;15.95;;;8.32;;
23390;SDS011;11868;45.606;5.302;2023-02-28T01:12:04;12.05;;;7.38;;
23390;SDS011;11868;45.606;5.302;2023-02-28T01:14:29;11.95;;;7.72;;
23390;SDS011;11868;45.606;5.302;2023-02-28T01:16:55;16.02;;;7.15;;
23390;SDS011;11868;45.606;5.302;2023-02-28T01:19:20;11.40;;;7.20;;
23390;SDS011;11868;45.606;5.302;2023-02-28T01:21:45;9.63;;;7.32;;
23390;SDS011;11868;45.606;5.302;2023-02-28T01:24:11;11.25;;;7.65;;
23390;SDS011;11868;45.606;5.302;2023-02-28T01:26:36;12.45;;;7.28;;
23390;SDS011;11868;45.606;5.302;2023-02-28T01:29:01;10.40;;;7.43;;
23390;SDS011;11868;45.606;5.302;2023-02-28T01:31:27;11.18;;;7.75;;
23390;SDS011;11868;45.606;5.302;2023-02-28T01:33:52;11.73;;;7.63;;
23390;SDS011;11868;45.606;5.302;2023-02-28T01:36:19;10.48;;;7.07;;
23390;SDS011;11868;45.606;5.302;2023-02-28T01:38:46;12.18;;;7.65;;
23390;SDS011;11868;45.606;5.302;2023-02-28T01:41:17;10.27;;;7.47;;
23390;SDS011;11868;45.606;5.302;2023-02-28T01:46:10;9.85;;;6.97;;
23390;SDS011;11868;45.606;5.302;2023-02-28T01:48:46;10.38;;;7.50;;
23390;SDS011;11868;45.606;5.302;2023-02-28T01:51:16;10.68;;;7.50;;
23390;SDS011;11868;45.606;5.302;2023-02-28T01:53:46;12.00;;;7.22;;
23390;SDS011;11868;45.606;5.302;2023-02-28T01:56:13;12.13;;;7.32;;
23390;SDS011;11868;45.606;5.302;2023-02-28T01:58:46;11.02;;;7.30;;
23390;SDS011;11868;45.606;5.302;2023-02-28T02:01:12;10.00;;;7.15;;
23390;SDS011;11868;45.606;5.302;2023-02-28T02:03:46;10.25;;;7.60;;
23390;SDS011;11868;45.606;5.302;2023-02-28T02:06:12;11.05;;;7.20;;
23390;SDS011;11868;45.606;5.302;2023-02-28T02:08:38;11.63;;;7.43;;
23390;SDS011;11868;45.606;5.302;2023-02-28T02:11:03;11.35;;;7.53;;
23390;SDS011;11868;45.606;5.302;2023-02-28T02:24:40;9.95;;;6.75;;
23390;SDS011;11868;45.606;5.302;2023-02-28T02:27:25;14.57;;;7.80;;
23390;SDS011;11868;45.606;5.302;2023-02-28T02:38:51;11.40;;;7.65;;
23390;SDS011;11868;45.606;5.302;2023-02-28T02:41:40;10.25;;;7.70;;
23390;SDS011;11868;45.606;5.302;2023-02-28T02:47:10;12.25;;;7.63;;
23390;SDS011;11868;45.606;5.302;2023-02-28T02:49:38;10.60;;;7.80;;
23390;SDS011;11868;45.606;5.302;2023-02-28T02:52:08;12.20;;;8.13;;
23390;SDS011;11868;45.606;5.302;2023-02-28T02:54:35;10.90;;;7.55;;
23390;SDS011;11868;45.606;5.302;2023-02-28T02:57:07;10.93;;;7.35;;
23390;SDS011;11868;45.606;5.302;2023-02-28T02:59:35;11.20;;;7.65;;
23390;SDS011;11868;45.606;5.302;2023-02-28T03:02:02;10.18;;;7.32;;
23390;SDS011;11868;45.606;5.302;2023-02-28T03:04:34;12.60;;;6.88;;
23390;SDS011;11868;45.606;5.302;2023-02-28T03:07:03;11.63;;;7.85;;
23390;SDS011;11868;45.606;5.302;2023-02-28T03:09:29;13.60;;;7.70;;
23390;SDS011;11868;45.606;5.302;2023-02-28T03:11:58;13.60;;;8.32;;
23390;SDS011;11868;45.606;5.302;2023-02-28T03:19:47;12.38;;;7.65;;
23390;SDS011;11868;45.606;5.302;2023-02-28T03:24:58;13.15;;;8.15;;
23390;SDS011;11868;45.606;5.302;2023-02-28T03:30:05;11.38;;;7.80;;
23390;SDS011;11868;45.606;5.302;2023-02-28T03:32:35;13.90;;;7.97;;
23390;SDS011;11868;45.606;5.302;2023-02-28T03:35:07;11.95;;;7.28;;
23390;SDS011;11868;45.606;5.302;2023-02-28T03:37:37;12.48;;;7.45;;
23390;SDS011;11868;45.606;5.302;2023-02-28T03:40:06;11.70;;;7.35;;
23390;SDS011;11868;45.606;5.302;2023-02-28T03:42:36;10.60;;;7.07;;
23390;SDS011;11868;45.606;5.302;2023-02-28T03:45:04;11.10;;;7.15;;
23390;SDS011;11868;45.606;5.302;2023-02-28T03:47:38;11.60;;;7.38;;
23390;SDS011;11868;45.606;5.302;2023-02-28T03:50:13;11.23;;;6.97;;
23390;SDS011;11868;45.606;5.302;2023-02-28T03:52:47;10.32;;;6.93;;
23390;SDS011;11868;45.606;5.302;2023-02-28T03:55:26;10.85;;;6.95;;
23390;SDS011;11868;45.606;5.302;2023-02-28T03:57:58;9.25;;;6.82;;
23390;SDS011;11868;45.606;5.302;2023-02-28T04:00:47;10.68;;;6.70;;
23390;SDS011;11868;45.606;5.302;2023-02-28T04:03:16;9.75;;;6.95;;
23390;SDS011;11868;45.606;5.302;2023-02-28T04:05:49;11.88;;;7.63;;
23390;SDS011;11868;45.606;5.302;2023-02-28T04:08:19;10.45;;;7.18;;
23390;SDS011;11868;45.606;5.302;2023-02-28T04:10:45;10.68;;;6.95;;
23390;SDS011;11868;45.606;5.302;2023-02-28T04:13:15;10.02;;;7.32;;
23390;SDS011;11868;45.606;5.302;2023-02-28T04:15:41;12.30;;;7.50;;
23390;SDS011;11868;45.606;5.302;2023-02-28T04:18:06;10.18;;;7.10;;
23390;SDS011;11868;45.606;5.302;2023-02-28T04:20:31;10.13;;;7.07;;
23390;SDS011;11868;45.606;5.302;2023-02-28T04:22:57;10.75;;;7.18;;
23390;SDS011;11868;45.606;5.302;2023-02-28T04:25:22;12.98;;;6.80;;
23390;SDS011;11868;45.606;5.302;2023-02-28T04:27:47;11.88;;;7.10;;
23390;SDS011;11868;45.606;5.302;2023-02-28T04:30:13;10.38;;;7.32;;
23390;SDS011;11868;45.606;5.302;2023-02-28T04:32:38;10.13;;;7.07;;
23390;SDS011;11868;45.606;5.302;2023-02-28T04:35:04;10.10;;;6.85;;
23390;SDS011;11868;45.606;5.302;2023-02-28T04:37:29;11.32;;;7.10;;
23390;SDS011;11868;45.606;5.302;2023-02-28T04:39:55;10.38;;;6.75;;
23390;SDS011;11868;45.606;5.302;2023-02-28T04:42:20;9.38;;;7.18;;
23390;SDS011;11868;45.606;5.302;2023-02-28T04:44:45;13.00;;;7.55;;
23390;SDS011;11868;45.606;5.302;2023-02-28T04:47:12;10.32;;;6.57;;
23390;SDS011;11868;45.606;5.302;2023-02-28T04:49:37;11.82;;;7.22;;
23390;SDS011;11868;45.606;5.302;2023-02-28T04:52:03;12.32;;;6.85;;
23390;SDS011;11868;45.606;5.302;2023-02-28T04:54:28;8.70;;;7.13;;
23390;SDS011;11868;45.606;5.302;2023-02-28T04:56:54;11.45;;;7.20;;
23390;SDS011;11868;45.606;5.302;2023-02-28T04:59:20;11.40;;;7.30;;
23390;SDS011;11868;45.606;5.302;2023-02-28T05:01:46;9.95;;;7.07;;
23390;SDS011;11868;45.606;5.302;2023-02-28T05:04:12;9.93;;;7.03;;
23390;SDS011;11868;45.606;5.302;2023-02-28T05:06:37;11.45;;;7.90;;
23390;SDS011;11868;45.606;5.302;2023-02-28T05:09:02;14.18;;;7.10;;
23390;SDS011;11868;45.606;5.302;2023-02-28T05:11:29;12.23;;;7.18;;
23390;SDS011;11868;45.606;5.302;2023-02-28T05:13:59;13.50;;;7.00;;
23390;SDS011;11868;45.606;5.302;2023-02-28T05:16:26;11.70;;;7.75;;
23390;SDS011;11868;45.606;5.302;2023-02-28T05:18:51;9.73;;;6.75;;
23390;SDS011;11868;45.606;5.302;2023-02-28T05:23:50;9.73;;;7.18;;
23390;SDS011;11868;45.606;5.302;2023-02-28T05:26:16;12.70;;;7.32;;
23390;SDS011;11868;45.606;5.302;2023-02-28T05:28:41;11.18;;;6.38;;
23390;SDS011;11868;45.606;5.302;2023-02-28T05:31:07;12.15;;;6.88;;
23390;SDS011;11868;45.606;5.302;2023-02-28T05:33:35;10.87;;;6.87;;
23390;SDS011;11868;45.606;5.302;2023-02-28T05:36:00;10.02;;;7.00;;
23390;SDS011;11868;45.606;5.302;2023-02-28T05:38:25;10.00;;;6.63;;
23390;SDS011;11868;45.606;5.302;2023-02-28T05:40:51;10.25;;;6.55;;
23390;SDS011;11868;45.606;5.302;2023-02-28T05:43:18;9.30;;;6.53;;
23390;SDS011;11868;45.606;5.302;2023-02-28T05:45:43;11.60;;;6.47;;
23390;SDS011;11868;45.606;5.302;2023-02-28T05:48:09;8.95;;;5.90;;
23390;SDS011;11868;45.606;5.302;2023-02-28T05:50:35;10.10;;;6.40;;
23390;SDS011;11868;45.606;5.302;2023-02-28T05:53:01;9.52;;;6.53;;
23390;SDS011;11868;45.606;5.302;2023-02-28T05:55:26;11.65;;;6.50;;
23390;SDS011;11868;45.606;5.302;2023-02-28T05:57:52;10.88;;;6.40;;
23390;SDS011;11868;45.606;5.302;2023-02-28T06:00:17;10.00;;;6.60;;
23390;SDS011;11868;45.606;5.302;2023-02-28T06:02:43;9.90;;;6.47;;
23390;SDS011;11868;45.606;5.302;2023-02-28T06:05:16;9.77;;;6.82;;
23390;SDS011;11868;45.606;5.302;2023-02-28T06:07:43;9.73;;;6.50;;
23390;SDS011;11868;45.606;5.302;2023-02-28T06:10:09;9.57;;;6.35;;
23390;SDS011;11868;45.606;5.302;2023-02-28T06:12:36;10.43;;;6.43;;
23390;SDS011;11868;45.606;5.302;2023-02-28T06:15:01;8.52;;;6.18;;
23390;SDS011;11868;45.606;5.302;2023-02-28T06:17:27;8.57;;;6.25;;
23390;SDS011;11868;45.606;5.302;2023-02-28T06:19:52;9.85;;;6.38;;
23390;SDS011;11868;45.606;5.302;2023-02-28T06:22:18;9.50;;;6.07;;
23390;SDS011;11868;45.606;5.302;2023-02-28T06:24:43;8.93;;;6.22;;
23390;SDS011;11868;45.606;5.302;2023-02-28T06:27:08;8.57;;;6.45;;
23390;SDS011;11868;45.606;5.302;2023-02-28T06:29:34;11.63;;;6.75;;
23390;SDS011;11868;45.606;5.302;2023-02-28T06:31:59;10.35;;;6.70;;
23390;SDS011;11868;45.606;5.302;2023-02-28T06:34:25;8.68;;;6.05;;
23390;SDS011;11868;45.606;5.302;2023-02-28T06:36:51;11.45;;;6.55;;
23390;SDS011;11868;45.606;5.302;2023-02-28T06:39:16;9.35;;;5.97;;
23390;SDS011;11868;45.606;5.302;2023-02-28T06:41:42;11.20;;;6.00;;
23390;SDS011;11868;45.606;5.302;2023-02-28T06:44:11;9.50;;;6.50;;
23390;SDS011;11868;45.606;5.302;2023-02-28T06:46:38;10.13;;;6.80;;
23390;SDS011;11868;45.606;5.302;2023-02-28T06:49:06;9.98;;;6.43;;
23390;SDS011;11868;45.606;5.302;2023-02-28T06:51:33;7.57;;;6.05;;
23390;SDS011;11868;45.606;5.302;2023-02-28T06:53:59;8.15;;;5.93;;
23390;SDS011;11868;45.606;5.302;2023-02-28T06:56:24;9.13;;;6.43;;
23390;SDS011;11868;45.606;5.302;2023-02-28T06:58:50;10.93;;;6.78;;
23390;SDS011;11868;45.606;5.302;2023-02-28T07:01:16;9.48;;;6.57;;
23390;SDS011;11868;45.606;5.302;2023-02-28T07:03:42;13.73;;;7.57;;
23390;SDS011;11868;45.606;5.302;2023-02-28T07:06:08;13.90;;;6.78;;
23390;SDS011;11868;45.606;5.302;2023-02-28T07:08:33;10.65;;;6.43;;
23390;SDS011;11868;45.606;5.302;2023-02-28T07:11:00;10.80;;;6.38;;
23390;SDS011;11868;45.606;5.302;2023-02-28T07:13:26;8.82;;;6.00;;
23390;SDS011;11868;45.606;5.302;2023-02-28T07:15:59;9.68;;;6.22;;
23390;SDS011;11868;45.606;5.302;2023-02-28T07:18:26;11.35;;;6.75;;
23390;SDS011;11868;45.606;5.302;2023-02-28T07:20:51;9.80;;;6.03;;
23390;SDS011;11868;45.606;5.302;2023-02-28T07:23:17;11.05;;;6.80;;
23390;SDS011;11868;45.606;5.302;2023-02-28T07:25:43;10.45;;;6.50;;
23390;SDS011;11868;45.606;5.302;2023-02-28T07:28:09;10.20;;;6.20;;
23390;SDS011;11868;45.606;5.302;2023-02-28T07:30:34;9.48;;;5.85;;
23390;SDS011;11868;45.606;5.302;2023-02-28T07:32:59;11.32;;;6.60;;
23390;SDS011;11868;45.606;5.302;2023-02-28T07:35:25;9.05;;;5.88;;
23390;SDS011;11868;45.606;5.302;2023-02-28T07:37:50;10.27;;;5.93;;
23390;SDS011;11868;45.606;5.302;2023-02-28T07:40:16;11.27;;;6.38;;
23390;SDS011;11868;45.606;5.302;2023-02-28T07:42:43;9.85;;;5.63;;
23390;SDS011;11868;45.606;5.302;2023-02-28T07:45:09;13.90;;;6.57;;
23390;SDS011;11868;45.606;5.302;2023-02-28T07:47:36;10.43;;;6.03;;
23390;SDS011;11868;45.606;5.302;2023-02-28T07:50:03;9.63;;;5.68;;
23390;SDS011;11868;45.606;5.302;2023-02-28T07:52:28;9.73;;;5.45;;
23390;SDS011;11868;45.606;5.302;2023-02-28T07:54:54;9.85;;;6.30;;
23390;SDS011;11868;45.606;5.302;2023-02-28T07:57:19;10.52;;;6.30;;
23390;SDS011;11868;45.606;5.302;2023-02-28T07:59:44;9.80;;;5.40;;
23390;SDS011;11868;45.606;5.302;2023-02-28T08:02:13;10.13;;;6.05;;
23390;SDS011;11868;45.606;5.302;2023-02-28T08:04:40;9.13;;;5.97;;
23390;SDS011;11868;45.606;5.302;2023-02-28T08:07:05;13.10;;;6.18;;
23390;SDS011;11868;45.606;5.302;2023-02-28T08:09:30;9.90;;;5.78;;
23390;SDS011;11868;45.606;5.302;2023-02-28T08:11:56;8.75;;;5.78;;
23390;SDS011;11868;45.606;5.302;2023-02-28T08:14:21;10.95;;;6.22;;
23390;SDS011;11868;45.606;5.302;2023-02-28T08:16:47;9.57;;;6.82;;
23390;SDS011;11868;45.606;5.302;2023-02-28T08:19:13;9.73;;;6.60;;
23390;SDS011;11868;45.606;5.302;2023-02-28T08:21:38;10.57;;;6.03;;
23390;SDS011;11868;45.606;5.302;2023-02-28T08:24:04;9.77;;;6.38;;
23390;SDS011;11868;45.606;5.302;2023-02-28T08:26:30;13.00;;;7.30;;
23390;SDS011;11868;45.606;5.302;2023-02-28T08:28:55;8.70;;;6.35;;
23390;SDS011;11868;45.606;5.302;2023-02-28T08:31:21;8.55;;;6.00;;
23390;SDS011;11868;45.606;5.302;2023-02-28T08:33:48;9.15;;;6.05;;
23390;SDS011;11868;45.606;5.302;2023-02-28T08:36:16;12.57;;;6.40;;
23390;SDS011;11868;45.606;5.302;2023-02-28T08:38:41;13.38;;;6.55;;
23390;SDS011;11868;45.606;5.302;2023-02-28T08:41:08;9.10;;;6.65;;
23390;SDS011;11868;45.606;5.302;2023-02-28T08:43:35;8.75;;;6.20;;
23390;SDS011;11868;45.606;5.302;2023-02-28T08:46:01;10.23;;;6.45;;
23390;SDS011;11868;45.606;5.302;2023-02-28T08:48:27;8.95;;;6.13;;
23390;SDS011;11868;45.606;5.302;2023-02-28T08:50:57;10.10;;;6.97;;
23390;SDS011;11868;45.606;5.302;2023-02-28T08:53:23;9.45;;;6.32;;
23390;SDS011;11868;45.606;5.302;2023-02-28T08:55:55;9.40;;;5.80;;
23390;SDS011;11868;45.606;5.302;2023-02-28T08:58:21;8.18;;;6.10;;
23390;SDS011;11868;45.606;5.302;2023-02-28T09:00:47;12.77;;;6.85;;
23390;SDS011;11868;45.606;5.302;2023-02-28T09:03:12;9.65;;;6.35;;
23390;SDS011;11868;45.606;5.302;2023-02-28T09:05:37;9.52;;;6.30;;
23390;SDS011;11868;45.606;5.302;2023-02-28T09:08:03;13.18;;;6.57;;
23390;SDS011;11868;45.606;5.302;2023-02-28T09:10:28;15.27;;;6.68;;
23390;SDS011;11868;45.606;5.302;2023-02-28T09:12:53;11.40;;;6.70;;
23390;SDS011;11868;45.606;5.302;2023-02-28T09:15:19;9.20;;;6.60;;
23390;SDS011;11868;45.606;5.302;2023-02-28T09:17:44;15.07;;;6.57;;
23390;SDS011;11868;45.606;5.302;2023-02-28T09:20:10;12.80;;;6.00;;
23390;SDS011;11868;45.606;5.302;2023-02-28T09:22:36;9.77;;;6.20;;
23390;SDS011;11868;45.606;5.302;2023-02-28T09:25:01;10.43;;;6.07;;
23390;SDS011;11868;45.606;5.302;2023-02-28T09:27:26;8.95;;;6.28;;
23390;SDS011;11868;45.606;5.302;2023-02-28T09:29:52;10.75;;;5.55;;
23390;SDS011;11868;45.606;5.302;2023-02-28T09:32:17;8.45;;;5.90;;
23390;SDS011;11868;45.606;5.302;2023-02-28T09:34:43;9.95;;;5.88;;
23390;SDS011;11868;45.606;5.302;2023-02-28T09:37:08;11.40;;;6.25;;
23390;SDS011;11868;45.606;5.302;2023-02-28T09:39:33;7.65;;;5.20;;
23390;SDS011;11868;45.606;5.302;2023-02-28T09:41:59;10.38;;;5.85;;
23390;SDS011;11868;45.606;5.302;2023-02-28T09:44:38;8.32;;;6.38;;
23390;SDS011;11868;45.606;5.302;2023-02-28T09:47:21;12.32;;;5.38;;
23390;SDS011;11868;45.606;5.302;2023-02-28T09:49:50;8.00;;;5.30;;
23390;SDS011;11868;45.606;5.302;2023-02-28T09:52:20;8.73;;;5.45;;
23390;SDS011;11868;45.606;5.302;2023-02-28T09:54:47;7.28;;;5.68;;
23390;SDS011;11868;45.606;5.302;2023-02-28T10:05:01;9.25;;;5.93;;
23390;SDS011;11868;45.606;5.302;2023-02-28T10:13:13;9.13;;;5.82;;
23390;SDS011;11868;45.606;5.302;2023-02-28T10:15:41;8.65;;;5.63;;
23390;SDS011;11868;45.606;5.302;2023-02-28T10:18:10;8.18;;;5.57;;
23390;SDS011;11868;45.606;5.302;2023-02-28T10:20:38;7.50;;;5.45;;
23390;SDS011;11868;45.606;5.302;2023-02-28T10:23:09;10.18;;;5.25;;
23390;SDS011;11868;45.606;5.302;2023-02-28T10:25:42;7.53;;;5.72;;
23390;SDS011;11868;45.606;5.302;2023-02-28T10:28:15;15.15;;;6.00;;
23390;SDS011;11868;45.606;5.302;2023-02-28T10:30:52;8.73;;;5.65;;
23390;SDS011;11868;45.606;5.302;2023-02-28T10:33:29;10.07;;;5.40;;
23390;SDS011;11868;45.606;5.302;2023-02-28T10:35:56;8.02;;;5.00;;
23390;SDS011;11868;45.606;5.302;2023-02-28T10:38:26;7.60;;;5.55;;
23390;SDS011;11868;45.606;5.302;2023-02-28T10:41:03;11.63;;;5.80;;
23390;SDS011;11868;45.606;5.302;2023-02-28T10:43:28;10.90;;;6.15;;
23390;SDS011;11868;45.606;5.302;2023-02-28T10:45:58;10.70;;;6.78;;
23390;SDS011;11868;45.606;5.302;2023-02-28T10:48:26;9.68;;;6.13;;
23390;SDS011;11868;45.606;5.302;2023-02-28T10:50:55;14.23;;;6.88;;
23390;SDS011;11868;45.606;5.302;2023-02-28T10:56:01;9.82;;;6.35;;
23390;SDS011;11868;45.606;5.302;2023-02-28T10:58:48;9.45;;;6.22;;
23390;SDS011;11868;45.606;5.302;2023-02-28T11:01:18;9.03;;;6.53;;
23390;SDS011;11868;45.606;5.302;2023-02-28T11:03:44;13.05;;;8.90;;
23390;SDS011;11868;45.606;5.302;2023-02-28T11:06:15;8.70;;;6.40;;
23390;SDS011;11868;45.606;5.302;2023-02-28T11:08:46;9.70;;;5.95;;
23390;SDS011;11868;45.606;5.302;2023-02-28T11:11:13;10.68;;;7.47;;
23390;SDS011;11868;45.606;5.302;2023-02-28T11:13:38;9.38;;;6.00;;
23390;SDS011;11868;45.606;5.302;2023-02-28T11:16:05;9.85;;;6.50;;
23390;SDS011;11868;45.606;5.302;2023-02-28T11:18:42;11.05;;;7.18;;
23390;SDS011;11868;45.606;5.302;2023-02-28T11:21:09;8.60;;;6.38;;
23390;SDS011;11868;45.606;5.302;2023-02-28T11:23:41;6.60;;;5.60;;
23390;SDS011;11868;45.606;5.302;2023-02-28T11:26:07;8.85;;;6.07;;
23390;SDS011;11868;45.606;5.302;2023-02-28T11:28:40;9.07;;;6.47;;
23390;SDS011;11868;45.606;5.302;2023-02-28T11:31:14;9.18;;;6.38;;
23390;SDS011;11868;45.606;5.302;2023-02-28T11:33:48;9.07;;;6.30;;
23390;SDS011;11868;45.606;5.302;2023-02-28T11:38:46;32.78;;;16.15;;
23390;SDS011;11868;45.606;5.302;2023-02-28T11:41:20;9.23;;;6.68;;
23390;SDS011;11868;45.606;5.302;2023-02-28T11:54:55;9.05;;;6.40;;
23390;SDS011;11868;45.606;5.302;2023-02-28T12:00:06;8.40;;;6.70;;
23390;SDS011;11868;45.606;5.302;2023-02-28T12:08:44;11.00;;;7.38;;
23390;SDS011;11868;45.606;5.302;2023-02-28T12:25:21;13.05;;;7.82;;
23390;SDS011;11868;45.606;5.302;2023-02-28T12:27:50;10.32;;;7.30;;
23390;SDS011;11868;45.606;5.302;2023-02-28T12:32:58;11.10;;;7.18;;
23390;SDS011;11868;45.606;5.302;2023-02-28T12:35:46;11.00;;;7.32;;
23390;SDS011;11868;45.606;5.302;2023-02-28T12:43:16;13.63;;;8.38;;
23390;SDS011;11868;45.606;5.302;2023-02-28T12:45:46;10.13;;;7.35;;
23390;SDS011;11868;45.606;5.302;2023-02-28T12:48:18;18.75;;;7.50;;
23390;SDS011;11868;45.606;5.302;2023-02-28T12:50:47;12.15;;;7.40;;
23390;SDS011;11868;45.606;5.302;2023-02-28T12:53:28;9.50;;;7.28;;
23390;SDS011;11868;45.606;5.302;2023-02-28T13:04:32;9.38;;;7.15;;
23390;SDS011;11868;45.606;5.302;2023-02-28T13:09:59;11.57;;;7.57;;
23390;SDS011;11868;45.606;5.302;2023-02-28T13:12:26;11.57;;;7.88;;
23390;SDS011;11868;45.606;5.302;2023-02-28T13:15:00;15.30;;;7.47;;
23390;SDS011;11868;45.606;5.302;2023-02-28T13:17:37;15.57;;;8.18;;
23390;SDS011;11868;45.606;5.302;2023-02-28T13:20:04;10.43;;;7.57;;
23390;SDS011;11868;45.606;5.302;2023-02-28T13:22:43;10.18;;;7.55;;
23390;SDS011;11868;45.606;5.302;2023-02-28T13:27:47;11.30;;;7.20;;
23390;SDS011;11868;45.606;5.302;2023-02-28T13:33:30;11.95;;;8.10;;
23390;SDS011;11868;45.606;5.302;2023-02-28T13:38:48;11.20;;;8.02;;
23390;SDS011;11868;45.606;5.302;2023-02-28T13:46:31;12.32;;;8.02;;
23390;SDS011;11868;45.606;5.302;2023-02-28T14:02:45;12.18;;;7.95;;
23390;SDS011;11868;45.606;5.302;2023-02-28T14:05:15;12.18;;;8.38;;
23390;SDS011;11868;45.606;5.302;2023-02-28T14:07:44;13.00;;;7.97;;
23390;SDS011;11868;45.606;5.302;2023-02-28T14:12:52;11.68;;;8.20;;
23390;SDS011;11868;45.606;5.302;2023-02-28T14:16:00;14.27;;;8.27;;
23390;SDS011;11868;45.606;5.302;2023-02-28T14:18:28;16.08;;;8.63;;
23390;SDS011;11868;45.606;5.302;2023-02-28T14:21:01;17.35;;;8.30;;
23390;SDS011;11868;45.606;5.302;2023-02-28T14:32:06;11.35;;;8.68;;
23390;SDS011;11868;45.606;5.302;2023-02-28T14:37:19;10.75;;;8.15;;
23390;SDS011;11868;45.606;5.302;2023-02-28T14:42:31;13.60;;;8.98;;
23390;SDS011;11868;45.606;5.302;2023-02-28T14:45:01;12.10;;;8.07;;
23390;SDS011;11868;45.606;5.302;2023-02-28T14:47:33;11.82;;;9.27;;
23390;SDS011;11868;45.606;5.302;2023-02-28T14:49:59;10.82;;;8.57;;
23390;SDS011;11868;45.606;5.302;2023-02-28T14:52:27;11.35;;;8.20;;
23390;SDS011;11868;45.606;5.302;2023-02-28T14:54:55;14.35;;;8.50;;
23390;SDS011;11868;45.606;5.302;2023-02-28T14:57:27;11.60;;;8.93;;
23390;SDS011;11868;45.606;5.302;2023-02-28T15:00:40;12.95;;;8.18;;
23390;SDS011;11868;45.606;5.302;2023-02-28T15:02:48;14.35;;;8.52;;
23390;SDS011;11868;45.606;5.302;2023-02-28T15:07:42;15.85;;;8.90;;
23390;SDS011;11868;45.606;5.302;2023-02-28T15:12:54;13.70;;;8.38;;
23390;SDS011;11868;45.606;5.302;2023-02-28T15:15:26;13.50;;;9.38;;
23390;SDS011;11868;45.606;5.302;2023-02-28T15:20:19;17.50;;;11.80;;
23390;SDS011;11868;45.606;5.302;2023-02-28T15:22:45;12.55;;;9.32;;
23390;SDS011;11868;45.606;5.302;2023-02-28T15:25:13;13.15;;;9.20;;
23390;SDS011;11868;45.606;5.302;2023-02-28T15:27:42;11.25;;;8.93;;
23390;SDS011;11868;45.606;5.302;2023-02-28T15:30:21;16.58;;;10.95;;
23390;SDS011;11868;45.606;5.302;2023-02-28T15:35:41;21.73;;;14.88;;
23390;SDS011;11868;45.606;5.302;2023-02-28T15:40:42;19.67;;;13.07;;
23390;SDS011;11868;45.606;5.302;2023-02-28T15:43:16;13.77;;;10.18;;
23390;SDS011;11868;45.606;5.302;2023-02-28T15:45:47;17.60;;;11.55;;
23390;SDS011;11868;45.606;5.302;2023-02-28T15:48:18;13.77;;;10.75;;
23390;SDS011;11868;45.606;5.302;2023-02-28T15:50:52;17.90;;;9.70;;
23390;SDS011;11868;45.606;5.302;2023-02-28T15:53:22;14.63;;;10.27;;
23390;SDS011;11868;45.606;5.302;2023-02-28T15:56:00;12.00;;;8.82;;
23390;SDS011;11868;45.606;5.302;2023-02-28T15:58:27;13.60;;;9.90;;
23390;SDS011;11868;45.606;5.302;2023-02-28T16:01:00;15.00;;;9.10;;
23390;SDS011;11868;45.606;5.302;2023-02-28T16:03:39;13.05;;;9.07;;
23390;SDS011;11868;45.606;5.302;2023-02-28T16:06:19;13.15;;;9.57;;
23390;SDS011;11868;45.606;5.302;2023-02-28T16:08:47;12.88;;;9.63;;
23390;SDS011;11868;45.606;5.302;2023-02-28T16:11:13;11.38;;;8.82;;
23390;SDS011;11868;45.606;5.302;2023-02-28T16:13:39;13.05;;;9.00;;
23390;SDS011;11868;45.606;5.302;2023-02-28T16:16:04;12.98;;;9.00;;
23390;SDS011;11868;45.606;5.302;2023-02-28T16:18:29;14.13;;;9.73;;
23390;SDS011;11868;45.606;5.302;2023-02-28T16:20:55;12.55;;;9.52;;
23390;SDS011;11868;45.606;5.302;2023-02-28T16:23:21;13.35;;;9.25;;
23390;SDS011;11868;45.606;5.302;2023-02-28T16:25:46;14.10;;;9.70;;
23390;SDS011;11868;45.606;5.302;2023-02-28T16:30:44;14.70;;;9.95;;
23390;SDS011;11868;45.606;5.302;2023-02-28T16:33:10;12.00;;;9.52;;
23390;SDS011;11868;45.606;5.302;2023-02-28T16:35:35;12.38;;;8.93;;
23390;SDS011;11868;45.606;5.302;2023-02-28T16:38:00;15.05;;;9.98;;
23390;SDS011;11868;45.606;5.302;2023-02-28T16:40:26;14.38;;;9.95;;
23390;SDS011;11868;45.606;5.302;2023-02-28T16:42:54;14.13;;;10.10;;
23390;SDS011;11868;45.606;5.302;2023-02-28T16:45:24;25.45;;;17.00;;
23390;SDS011;11868;45.606;5.302;2023-02-28T16:47:50;14.10;;;10.95;;
23390;SDS011;11868;45.606;5.302;2023-02-28T16:50:20;15.02;;;10.93;;
23390;SDS011;11868;45.606;5.302;2023-02-28T16:52:47;14.35;;;9.82;;
23390;SDS011;11868;45.606;5.302;2023-02-28T16:55:14;14.23;;;9.52;;
23390;SDS011;11868;45.606;5.302;2023-02-28T16:57:40;12.50;;;9.95;;
23390;SDS011;11868;45.606;5.302;2023-02-28T17:00:06;25.77;;;17.05;;
23390;SDS011;11868;45.606;5.302;2023-02-28T17:02:34;14.30;;;10.10;;
23390;SDS011;11868;45.606;5.302;2023-02-28T17:04:59;14.25;;;10.15;;
23390;SDS011;11868;45.606;5.302;2023-02-28T17:07:25;17.98;;;10.05;;
23390;SDS011;11868;45.606;5.302;2023-02-28T17:09:50;13.40;;;9.40;;
23390;SDS011;11868;45.606;5.302;2023-02-28T17:12:16;11.60;;;9.45;;
23390;SDS011;11868;45.606;5.302;2023-02-28T17:14:41;13.13;;;9.18;;
23390;SDS011;11868;45.606;5.302;2023-02-28T17:17:07;15.52;;;9.65;;
23390;SDS011;11868;45.606;5.302;2023-02-28T17:19:34;16.08;;;8.80;;
23390;SDS011;11868;45.606;5.302;2023-02-28T17:22:01;12.45;;;9.43;;
23390;SDS011;11868;45.606;5.302;2023-02-28T17:24:27;13.35;;;9.35;;
23390;SDS011;11868;45.606;5.302;2023-02-28T17:26:53;12.63;;;9.75;;
23390;SDS011;11868;45.606;5.302;2023-02-28T17:29:19;15.57;;;9.38;;
23390;SDS011;11868;45.606;5.302;2023-02-28T17:31:45;12.70;;;9.30;;
23390;SDS011;11868;45.606;5.302;2023-02-28T17:34:11;13.20;;;9.50;;